createdAt,value
2022-11-17T00:01:17.250Z,2.50
2022-11-17T00:03:43.909Z,2.40
2022-11-17T00:06:10.710Z,2.30
2022-11-17T00:08:37.426Z,2.30
2022-11-17T00:11:04.387Z,2.50
2022-11-17T00:13:49.841Z,2.30
2022-11-17T00:16:17.528Z,2.20
2022-11-17T00:19:02.940Z,2.10
2022-11-17T00:21:30.392Z,2.00
2022-11-17T00:23:57.412Z,2.00
2022-11-17T00:26:25.140Z,2.20
2022-11-17T00:28:56.266Z,2.40
2022-11-17T00:31:41.840Z,2.50
2022-11-17T00:34:11.095Z,2.30
2022-11-17T00:36:45.101Z,2.30
2022-11-17T00:39:12.639Z,2.30
2022-11-17T00:41:39.348Z,2.30
2022-11-17T00:44:06.611Z,2.30
2022-11-17T00:46:33.761Z,2.30
2022-11-17T00:49:00.724Z,2.40
2022-11-17T00:51:27.505Z,2.50
2022-11-17T00:53:54.238Z,2.50
2022-11-17T00:56:21.176Z,2.80
2022-11-17T00:58:47.958Z,2.80
2022-11-17T01:01:15.058Z,2.70
2022-11-17T01:03:41.760Z,2.60
2022-11-17T01:06:12.636Z,2.80
2022-11-17T01:08:39.390Z,2.80
2022-11-17T01:11:06.134Z,2.80
2022-11-17T01:13:33.292Z,3.00
2022-11-17T01:16:07.973Z,3.00
2022-11-17T01:18:34.685Z,3.00
2022-11-17T01:21:06.081Z,3.10
2022-11-17T01:23:32.992Z,3.30
2022-11-17T01:26:07.561Z,3.40
2022-11-17T01:28:34.753Z,3.10
2022-11-17T01:31:08.982Z,3.00
2022-11-17T01:33:35.951Z,3.20
2022-11-17T01:36:07.328Z,3.30
2022-11-17T01:38:34.232Z,3.40
2022-11-17T01:41:01.896Z,3.30
2022-11-17T01:43:36.756Z,3.50
2022-11-17T01:46:04.320Z,3.50
2022-11-17T01:48:31.180Z,3.40
2022-11-17T01:50:58.324Z,3.20
2022-11-17T01:53:26.221Z,3.10
2022-11-17T01:55:59.468Z,3.10
2022-11-17T01:58:28.854Z,3.30
2022-11-17T02:00:55.695Z,3.30
2022-11-17T02:03:23.044Z,3.30
2022-11-17T02:05:57.624Z,3.40
2022-11-17T02:08:26.164Z,3.50
2022-11-17T02:10:53.328Z,3.60
2022-11-17T02:13:21.264Z,3.70
2022-11-17T02:15:47.948Z,3.70
2022-11-17T02:18:16.175Z,3.80
2022-11-17T02:21:05.891Z,3.60
2022-11-17T02:23:38.462Z,3.60
2022-11-17T02:26:05.154Z,3.60
2022-11-17T02:28:34.365Z,3.70
2022-11-17T02:31:01.125Z,3.80
2022-11-17T02:33:39.704Z,3.90
2022-11-17T02:36:09.445Z,3.80
2022-11-17T02:38:38.954Z,3.70
2022-11-17T02:41:11.721Z,3.70
2022-11-17T02:44:03.701Z,3.80
2022-11-17T02:46:47.227Z,3.90
2022-11-17T02:49:22.219Z,3.80
2022-11-17T02:51:50.680Z,4.00
2022-11-17T02:54:17.958Z,4.00
2022-11-17T02:56:44.658Z,3.80
2022-11-17T02:59:13.768Z,3.90
2022-11-17T03:02:01.568Z,3.90
2022-11-17T03:04:28.271Z,3.90
2022-11-17T03:07:10.439Z,4.00
2022-11-17T03:09:49.389Z,4.10
2022-11-17T03:12:18.878Z,4.10
2022-11-17T03:14:56.547Z,4.00
2022-11-17T03:17:44.182Z,4.10
2022-11-17T03:20:19.246Z,4.00
2022-11-17T03:22:45.886Z,4.10
2022-11-17T03:25:14.817Z,4.10
2022-11-17T03:27:45.092Z,3.90
2022-11-17T03:30:12.425Z,3.90
2022-11-17T03:32:40.849Z,3.70
2022-11-17T03:35:09.695Z,3.70
2022-11-17T03:37:37.983Z,3.60
2022-11-17T03:40:06.771Z,3.40
2022-11-17T03:42:34.451Z,3.40
2022-11-17T03:45:06.554Z,3.40
2022-11-17T03:47:34.049Z,3.40
2022-11-17T03:50:09.942Z,3.40
2022-11-17T03:52:37.925Z,3.50
2022-11-17T03:55:06.040Z,3.60
2022-11-17T03:57:32.838Z,3.70
2022-11-17T04:00:05.184Z,3.70
2022-11-17T04:02:46.844Z,3.70
2022-11-17T04:05:14.639Z,3.70
2022-11-17T04:07:42.761Z,3.80
2022-11-17T04:10:10.658Z,3.80
2022-11-17T04:12:56.323Z,3.90
2022-11-17T04:15:41.716Z,3.90
2022-11-17T04:18:08.688Z,4.00
2022-11-17T04:20:38.008Z,4.00
2022-11-17T04:23:08.651Z,4.10
2022-11-17T04:26:17.437Z,4.00
2022-11-17T04:28:45.834Z,4.10
2022-11-17T04:31:12.533Z,4.10
2022-11-17T04:33:40.526Z,4.10
2022-11-17T04:36:08.012Z,4.20
2022-11-17T04:38:34.714Z,4.30
2022-11-17T04:41:24.461Z,4.30
2022-11-17T04:43:51.441Z,4.40
2022-11-17T04:46:18.505Z,4.40
2022-11-17T04:48:45.391Z,4.30
2022-11-17T04:51:12.159Z,4.30
2022-11-17T04:53:38.951Z,4.40
2022-11-17T04:56:05.976Z,4.30
2022-11-17T04:58:32.770Z,4.30
2022-11-17T05:01:15.771Z,4.30
2022-11-17T05:03:46.797Z,4.20
2022-11-17T05:06:15.697Z,4.20
2022-11-17T05:08:43.074Z,4.20
2022-11-17T05:11:29.016Z,4.20
2022-11-17T05:13:55.774Z,4.30
2022-11-17T05:16:41.923Z,4.30
2022-11-17T05:19:10.297Z,4.30
2022-11-17T05:21:37.379Z,4.30
2022-11-17T05:24:04.323Z,4.30
2022-11-17T05:26:32.471Z,4.40
2022-11-17T05:29:00.262Z,4.50
2022-11-17T05:31:27.654Z,4.50
2022-11-17T05:33:55.098Z,4.60
2022-11-17T05:36:22.481Z,4.60
2022-11-17T05:38:49.768Z,4.80
2022-11-17T05:41:17.269Z,4.80
2022-11-17T05:43:44.373Z,4.80
2022-11-17T05:46:11.328Z,5.00
2022-11-17T05:48:38.290Z,5.10
2022-11-17T05:51:05.228Z,5.00
2022-11-17T05:53:32.400Z,5.00
2022-11-17T05:56:07.953Z,5.00
2022-11-17T05:58:36.584Z,4.90
2022-11-17T06:01:03.968Z,4.80
2022-11-17T06:03:34.181Z,4.90
2022-11-17T06:06:01.186Z,4.90
2022-11-17T06:08:29.190Z,5.00
2022-11-17T06:10:56.351Z,5.00
2022-11-17T06:13:26.727Z,4.90
2022-11-17T06:15:54.644Z,5.00
2022-11-17T06:18:23.383Z,5.00
2022-11-17T06:20:50.803Z,5.00
2022-11-17T06:23:18.503Z,5.00
2022-11-17T06:25:45.364Z,5.10
2022-11-17T06:28:13.652Z,5.00
2022-11-17T06:30:40.834Z,5.10
2022-11-17T06:33:11.983Z,5.20
2022-11-17T06:35:39.262Z,5.20
2022-11-17T06:38:05.986Z,5.10
2022-11-17T06:40:32.675Z,5.10
2022-11-17T06:43:11.268Z,5.10
2022-11-17T06:45:37.976Z,5.30
2022-11-17T06:48:05.036Z,5.30
2022-11-17T06:50:31.854Z,5.20
2022-11-17T06:52:59.438Z,5.30
2022-11-17T06:55:26.330Z,5.40
2022-11-17T06:57:57.873Z,5.30
2022-11-17T07:00:24.621Z,5.30
2022-11-17T07:02:51.310Z,5.30
2022-11-17T07:05:18.178Z,5.30
2022-11-17T07:07:44.826Z,5.30
2022-11-17T07:10:11.522Z,5.30
2022-11-17T07:12:38.237Z,5.40
2022-11-17T07:15:05.115Z,5.40
2022-11-17T07:17:31.911Z,5.50
2022-11-17T07:19:58.715Z,5.60
2022-11-17T07:22:25.428Z,5.60
2022-11-17T07:24:52.105Z,5.60
2022-11-17T07:27:19.852Z,5.60
2022-11-17T07:29:46.830Z,5.50
2022-11-17T07:32:14.149Z,5.60
2022-11-17T07:34:41.232Z,5.70
2022-11-17T07:37:07.927Z,5.80
2022-11-17T07:39:34.586Z,5.60
2022-11-17T07:42:01.331Z,5.70
2022-11-17T07:44:27.993Z,5.90
2022-11-17T07:46:55.069Z,5.80
2022-11-17T07:49:21.900Z,5.70
2022-11-17T07:51:48.688Z,5.70
2022-11-17T07:54:15.463Z,5.90
2022-11-17T07:56:42.124Z,6.00
2022-11-17T07:59:08.776Z,6.10
2022-11-17T08:01:35.737Z,6.10
2022-11-17T08:04:02.470Z,6.10
2022-11-17T08:06:29.204Z,6.10
2022-11-17T08:08:55.918Z,6.10
2022-11-17T08:11:22.788Z,6.20
2022-11-17T08:13:50.748Z,6.10
2022-11-17T08:16:17.415Z,6.20
2022-11-17T08:18:50.541Z,6.20
2022-11-17T08:21:18.927Z,6.30
2022-11-17T08:23:49.631Z,6.30
2022-11-17T08:26:16.296Z,6.40
2022-11-17T08:28:43.023Z,6.40
2022-11-17T08:31:09.774Z,6.30
2022-11-17T08:33:36.481Z,6.40
2022-11-17T08:36:03.821Z,6.50
2022-11-17T08:38:30.726Z,6.50
2022-11-17T08:41:07.904Z,6.50
2022-11-17T08:43:35.247Z,6.60
2022-11-17T08:46:05.334Z,6.90
2022-11-17T08:48:33.143Z,6.80
2022-11-17T08:51:04.403Z,7.00
2022-11-17T08:53:31.121Z,6.90
2022-11-17T08:55:57.925Z,7.10
2022-11-17T08:58:24.830Z,7.20
2022-11-17T09:00:51.534Z,7.60
2022-11-17T09:03:18.232Z,7.90
2022-11-17T09:05:47.052Z,7.70
2022-11-17T09:11:09.084Z,7.60
2022-11-17T09:13:36.286Z,7.70
2022-11-17T09:16:06.851Z,7.70
2022-11-17T09:18:34.463Z,8.00
2022-11-17T09:21:02.192Z,8.50
2022-11-17T09:23:29.594Z,8.80
2022-11-17T09:25:56.317Z,9.00
2022-11-17T09:28:26.702Z,9.20
2022-11-17T09:30:53.566Z,9.30
2022-11-17T09:33:20.396Z,9.20
2022-11-17T09:35:47.074Z,9.20
2022-11-17T09:38:13.765Z,9.30
2022-11-17T09:40:40.990Z,9.40
2022-11-17T09:43:26.869Z,9.30
2022-11-17T09:45:56.794Z,8.90
2022-11-17T09:48:51.202Z,9.20
2022-11-17T09:51:19.846Z,9.30
2022-11-17T09:53:52.312Z,9.40
2022-11-17T09:56:19.077Z,9.40
2022-11-17T09:58:48.885Z,9.60
2022-11-17T10:01:17.850Z,9.50
2022-11-17T10:03:47.307Z,9.70
2022-11-17T10:06:17.048Z,9.70
2022-11-17T10:08:58.210Z,9.80
2022-11-17T10:11:35.176Z,10.00
2022-11-17T10:14:22.215Z,10.40
2022-11-17T10:16:54.094Z,11.10
2022-11-17T10:19:22.104Z,11.60
2022-11-17T10:21:50.341Z,11.30
2022-11-17T10:24:33.229Z,11.40
2022-11-17T10:27:00.018Z,11.30
2022-11-17T10:29:26.760Z,11.20
2022-11-17T10:31:53.489Z,11.10
2022-11-17T10:34:41.059Z,10.90
2022-11-17T10:37:14.686Z,10.80
2022-11-17T10:39:42.225Z,10.60
2022-11-17T10:42:16.393Z,10.70
2022-11-17T10:44:43.851Z,10.70
2022-11-17T10:47:24.996Z,10.80
2022-11-17T10:50:05.808Z,11.00
2022-11-17T10:52:32.491Z,11.00
2022-11-17T10:55:22.302Z,11.10
2022-11-17T10:57:51.205Z,11.10
2022-11-17T11:00:25.644Z,11.10
2022-11-17T11:03:02.777Z,11.30
2022-11-17T11:05:29.526Z,11.50
2022-11-17T11:08:28.701Z,11.60
2022-11-17T11:10:56.827Z,11.50
2022-11-17T11:13:23.585Z,11.70
2022-11-17T11:15:50.473Z,11.70
2022-11-17T11:18:18.045Z,11.60
2022-11-17T11:20:47.585Z,11.50
2022-11-17T11:23:20.396Z,11.50
2022-11-17T11:25:47.094Z,11.60
2022-11-17T11:28:33.216Z,11.70
2022-11-17T11:31:18.235Z,11.80
2022-11-17T11:33:51.901Z,11.80
2022-11-17T11:36:24.723Z,11.90
2022-11-17T11:38:57.095Z,11.80
2022-11-17T11:41:42.631Z,11.70
2022-11-17T11:44:15.704Z,11.70
2022-11-17T11:46:48.364Z,11.70
2022-11-17T11:49:33.922Z,11.50
2022-11-17T11:52:02.211Z,11.50
2022-11-17T11:54:40.518Z,11.60
2022-11-17T11:57:10.868Z,11.30
2022-11-17T11:59:50.708Z,11.30
2022-11-17T12:02:29.118Z,11.30
2022-11-17T12:05:11.205Z,11.30
2022-11-17T12:08:04.626Z,11.40
2022-11-17T12:10:37.955Z,11.50
2022-11-17T12:13:05.221Z,12.00
2022-11-17T12:15:33.249Z,12.20
2022-11-17T12:18:01.354Z,12.30
2022-11-17T12:20:31.046Z,12.40
2022-11-17T12:23:07.027Z,12.20
2022-11-17T12:25:35.932Z,11.80
2022-11-17T12:28:25.932Z,11.60
2022-11-17T12:30:54.083Z,11.50
2022-11-17T12:33:21.052Z,11.60
2022-11-17T12:36:07.725Z,11.60
2022-11-17T12:38:34.372Z,11.50
2022-11-17T12:41:01.041Z,11.60
2022-11-17T12:43:28.008Z,11.40
2022-11-17T12:46:00.622Z,11.30
2022-11-17T12:48:34.998Z,11.30
2022-11-17T12:51:08.130Z,11.50
2022-11-17T12:53:53.475Z,11.50
2022-11-17T12:56:20.208Z,11.60
2022-11-17T12:58:56.054Z,11.70
2022-11-17T13:01:28.658Z,11.60
2022-11-17T13:04:07.548Z,11.40
2022-11-17T13:06:36.358Z,11.20
2022-11-17T13:09:06.262Z,11.30
2022-11-17T13:11:33.212Z,11.50
2022-11-17T13:14:10.821Z,11.40
2022-11-17T13:16:42.416Z,11.20
2022-11-17T13:19:27.747Z,11.10
2022-11-17T13:21:58.428Z,11.10
2022-11-17T13:24:29.407Z,11.20
2022-11-17T13:27:00.366Z,11.10
2022-11-17T13:29:27.162Z,11.10
2022-11-17T13:32:12.742Z,11.10
2022-11-17T13:34:46.855Z,11.10
2022-11-17T13:37:21.850Z,11.00
2022-11-17T13:39:59.335Z,11.00
2022-11-17T13:42:27.747Z,11.00
2022-11-17T13:44:55.376Z,11.00
2022-11-17T13:47:27.615Z,11.10
2022-11-17T13:49:54.284Z,11.00
2022-11-17T13:52:37.172Z,11.10
2022-11-17T13:55:10.442Z,11.20
2022-11-17T13:57:37.238Z,11.30
2022-11-17T14:00:04.459Z,11.10
2022-11-17T14:02:36.080Z,11.00
2022-11-17T14:05:14.986Z,10.70
2022-11-17T14:07:42.554Z,10.60
2022-11-17T14:10:31.288Z,10.60
2022-11-17T14:13:00.988Z,10.60
2022-11-17T14:15:29.308Z,10.40
2022-11-17T14:17:55.941Z,10.20
2022-11-17T14:20:25.807Z,10.20
2022-11-17T14:23:03.165Z,10.20
2022-11-17T14:25:30.486Z,10.10
2022-11-17T14:27:57.303Z,10.10
2022-11-17T14:30:23.996Z,10.10
2022-11-17T14:32:50.741Z,10.10
2022-11-17T14:37:45.395Z,10.10
2022-11-17T14:40:12.832Z,9.90
2022-11-17T14:42:41.365Z,9.90
2022-11-17T14:45:09.175Z,9.80
2022-11-17T14:47:35.947Z,9.80
2022-11-17T14:50:03.478Z,9.80
2022-11-17T14:52:30.448Z,9.70
2022-11-17T14:54:58.994Z,9.60
2022-11-17T14:57:25.835Z,9.40
2022-11-17T14:59:52.713Z,9.20
2022-11-17T15:02:19.431Z,9.10
2022-11-17T15:04:50.886Z,9.10
2022-11-17T15:07:18.144Z,9.00
2022-11-17T15:09:44.903Z,9.00
2022-11-17T15:12:11.736Z,8.90
2022-11-17T15:14:38.492Z,8.80
2022-11-17T15:17:09.844Z,8.60
2022-11-17T15:19:40.118Z,8.60
2022-11-17T15:22:06.966Z,8.40
2022-11-17T15:24:33.619Z,8.40
2022-11-17T15:27:00.728Z,8.20
2022-11-17T15:29:27.420Z,8.10
2022-11-17T15:31:54.097Z,8.10
2022-11-17T15:34:20.869Z,8.00
2022-11-17T15:36:48.011Z,8.00
2022-11-17T15:39:14.889Z,8.10
2022-11-17T15:41:41.907Z,8.10
2022-11-17T15:44:08.651Z,8.10
2022-11-17T15:46:35.523Z,7.90
2022-11-17T15:49:02.207Z,7.60
2022-11-17T15:51:28.936Z,7.50
2022-11-17T15:53:56.863Z,7.50
2022-11-17T15:56:25.832Z,7.50
2022-11-17T15:58:57.282Z,7.50
2022-11-17T16:01:24.674Z,7.40
2022-11-17T16:03:51.897Z,7.40
2022-11-17T16:06:18.707Z,7.40
2022-11-17T16:08:45.400Z,7.20
2022-11-17T16:11:12.145Z,7.20
2022-11-17T16:13:38.902Z,7.00
2022-11-17T16:16:06.252Z,7.00
2022-11-17T16:18:33.864Z,6.90
2022-11-17T16:21:05.291Z,6.80
2022-11-17T16:23:37.317Z,7.00
2022-11-17T16:26:04.040Z,6.80
2022-11-17T16:28:30.703Z,6.60
2022-11-17T16:30:57.368Z,6.50
2022-11-17T16:33:24.095Z,6.60
2022-11-17T16:35:50.961Z,6.70
2022-11-17T16:38:17.633Z,6.70
2022-11-17T16:40:44.359Z,6.80
2022-11-17T16:43:12.195Z,7.00
2022-11-17T16:45:45.452Z,6.90
2022-11-17T16:48:12.470Z,6.90
2022-11-17T16:50:39.998Z,6.70
2022-11-17T16:53:06.765Z,6.70
2022-11-17T16:55:39.216Z,6.60
2022-11-17T16:58:07.081Z,6.60
2022-11-17T17:00:34.814Z,6.50
2022-11-17T17:03:01.819Z,6.40
2022-11-17T17:05:31.501Z,6.40
2022-11-17T17:07:58.162Z,6.30
2022-11-17T17:10:24.818Z,6.40
2022-11-17T17:12:51.989Z,6.50
2022-11-17T17:15:18.699Z,6.40
2022-11-17T17:17:45.342Z,6.50
2022-11-17T17:20:12.069Z,6.70
2022-11-17T17:22:38.766Z,6.60
2022-11-17T17:25:05.741Z,6.70
2022-11-17T17:27:32.473Z,6.90
2022-11-17T17:29:59.200Z,6.80
2022-11-17T17:32:25.885Z,7.00
2022-11-17T17:34:52.565Z,7.10
2022-11-17T17:37:19.200Z,7.20
2022-11-17T17:39:45.935Z,7.10
2022-11-17T17:42:13.316Z,7.10
2022-11-17T17:44:40.003Z,7.10
2022-11-17T17:47:06.707Z,7.10
2022-11-17T17:49:33.450Z,7.10
2022-11-17T17:52:00.213Z,7.10
2022-11-17T17:54:26.931Z,7.10
2022-11-17T17:56:53.701Z,7.10
2022-11-17T17:59:20.571Z,7.00
2022-11-17T18:01:49.542Z,7.00
2022-11-17T18:04:17.071Z,6.90
2022-11-17T18:06:46.987Z,6.90
2022-11-17T18:09:15.512Z,6.90
2022-11-17T18:11:45.934Z,6.90
2022-11-17T18:14:13.444Z,6.80
2022-11-17T18:16:40.254Z,6.80
2022-11-17T18:19:08.302Z,6.80
2022-11-17T18:21:35.523Z,6.70
2022-11-17T18:24:02.694Z,6.80
2022-11-17T18:26:31.178Z,6.80
2022-11-17T18:28:59.544Z,6.70
2022-11-17T18:31:27.622Z,6.60
2022-11-17T18:33:58.535Z,6.60
2022-11-17T18:36:25.704Z,6.50
2022-11-17T18:38:52.837Z,6.50
2022-11-17T18:41:20.302Z,6.70
2022-11-17T18:43:47.047Z,6.60
2022-11-17T18:46:15.012Z,6.50
2022-11-17T18:48:42.681Z,6.50
2022-11-17T18:51:25.825Z,6.40
2022-11-17T18:53:53.999Z,6.40
2022-11-17T18:56:21.718Z,6.40
2022-11-17T18:58:48.439Z,6.40
2022-11-17T19:01:16.357Z,6.50
2022-11-17T19:03:44.051Z,6.50
2022-11-17T19:06:11.342Z,6.60
2022-11-17T19:08:38.044Z,6.60
2022-11-17T19:11:06.414Z,6.70
2022-11-17T19:13:34.649Z,6.70
2022-11-17T19:16:05.806Z,6.80
2022-11-17T19:18:32.734Z,6.70
2022-11-17T19:21:12.996Z,6.70
2022-11-17T19:23:40.772Z,6.80
2022-11-17T19:26:09.604Z,6.80
2022-11-17T19:28:36.713Z,6.90
2022-11-17T19:31:04.589Z,7.00
2022-11-17T19:33:32.019Z,7.00
2022-11-17T19:36:05.920Z,6.90
2022-11-17T19:38:33.822Z,6.80
2022-11-17T19:41:04.227Z,6.80
2022-11-17T19:43:31.081Z,6.80
2022-11-17T19:46:01.815Z,6.80
2022-11-17T19:48:29.541Z,6.80
2022-11-17T19:50:56.704Z,6.90
2022-11-17T19:53:23.898Z,7.00
2022-11-17T19:55:50.610Z,7.00
2022-11-17T19:58:17.834Z,7.00
2022-11-17T20:00:46.017Z,6.90
2022-11-17T20:03:12.907Z,7.00
2022-11-17T20:05:39.596Z,7.00
2022-11-17T20:08:06.408Z,7.10
2022-11-17T20:10:33.294Z,7.10
2022-11-17T20:13:00.405Z,7.10
2022-11-17T20:15:34.443Z,7.10
2022-11-17T20:18:01.815Z,7.00
2022-11-17T20:20:28.443Z,7.10
2022-11-17T20:22:55.446Z,7.10
2022-11-17T20:25:22.112Z,7.10
2022-11-17T20:27:48.824Z,7.10
2022-11-17T20:30:15.722Z,7.10
2022-11-17T20:32:42.376Z,7.10
2022-11-17T20:35:09.137Z,7.20
2022-11-17T20:37:35.876Z,7.10
2022-11-17T20:40:02.749Z,7.10
2022-11-17T20:42:29.472Z,7.10
2022-11-17T20:44:56.156Z,7.00
2022-11-17T20:47:27.385Z,7.00
2022-11-17T20:49:54.857Z,7.10
2022-11-17T20:52:21.618Z,7.00
2022-11-17T20:54:48.268Z,7.00
2022-11-17T20:57:14.962Z,7.00
2022-11-17T20:59:41.617Z,7.00
2022-11-17T21:02:08.991Z,7.00
2022-11-17T21:04:35.619Z,7.00
2022-11-17T21:07:02.403Z,7.00
2022-11-17T21:09:29.129Z,6.90
2022-11-17T21:11:58.807Z,6.80
2022-11-17T21:14:27.183Z,6.90
2022-11-17T21:16:54.940Z,6.80
2022-11-17T21:19:21.712Z,6.70
2022-11-17T21:21:49.647Z,6.70
2022-11-17T21:24:16.387Z,6.80
2022-11-17T21:26:43.184Z,6.80
2022-11-17T21:29:09.834Z,6.90
2022-11-17T21:31:36.683Z,6.90
2022-11-17T21:34:05.123Z,7.00
2022-11-17T21:36:32.497Z,7.00
2022-11-17T21:38:59.508Z,7.00
2022-11-17T21:41:27.573Z,7.20
2022-11-17T21:43:55.338Z,7.10
2022-11-17T21:46:22.803Z,7.10
2022-11-17T21:48:49.931Z,7.00
2022-11-17T21:51:21.005Z,6.70
2022-11-17T21:53:51.430Z,6.60
2022-11-17T21:56:18.157Z,6.50
2022-11-17T21:58:44.828Z,6.60
2022-11-17T22:01:12.838Z,6.70
2022-11-17T22:03:40.322Z,6.80
2022-11-17T22:06:08.114Z,6.80
2022-11-17T22:08:38.360Z,6.80
2022-11-17T22:11:06.119Z,6.80
2022-11-17T22:13:32.810Z,6.80
2022-11-17T22:16:12.835Z,6.90
2022-11-17T22:18:39.846Z,6.90
2022-11-17T22:21:07.298Z,7.00
2022-11-17T22:23:34.189Z,7.10
2022-11-17T22:26:01.894Z,7.10
2022-11-17T22:28:29.045Z,7.20
2022-11-17T22:30:55.964Z,7.30
2022-11-17T22:33:22.913Z,7.30
2022-11-17T22:35:50.147Z,7.20
2022-11-17T22:38:16.995Z,7.30
2022-11-17T22:40:43.864Z,7.40
2022-11-17T22:43:14.862Z,7.40
2022-11-17T22:45:41.795Z,7.30
2022-11-17T22:48:08.817Z,7.30
2022-11-17T22:50:35.903Z,7.30
2022-11-17T22:53:03.024Z,7.30
2022-11-17T22:55:30.083Z,7.40
2022-11-17T22:57:56.907Z,7.50
2022-11-17T23:00:23.651Z,7.40
2022-11-17T23:02:50.355Z,7.40
2022-11-17T23:05:17.178Z,7.40
2022-11-17T23:07:43.925Z,7.40
2022-11-17T23:10:11.187Z,7.40
2022-11-17T23:12:38.035Z,7.40
2022-11-17T23:15:05.240Z,7.30
2022-11-17T23:17:31.888Z,7.30
2022-11-17T23:19:58.609Z,7.30
2022-11-17T23:22:25.534Z,7.30
2022-11-17T23:24:52.189Z,7.30
2022-11-17T23:27:18.860Z,7.30
2022-11-17T23:29:45.507Z,7.40
2022-11-17T23:32:12.136Z,7.40
2022-11-17T23:34:38.959Z,7.40
2022-11-17T23:37:05.636Z,7.40
2022-11-17T23:39:32.407Z,7.30
2022-11-17T23:41:59.196Z,7.30
2022-11-17T23:44:25.838Z,7.30
2022-11-17T23:46:52.522Z,7.30
2022-11-17T23:49:19.779Z,7.30
2022-11-17T23:51:46.745Z,7.30
2022-11-17T23:54:13.496Z,7.30
2022-11-17T23:56:40.495Z,7.40
2022-11-17T23:59:08.155Z,7.30
